sensor_id;sensor_type;location;lat;lon;timestamp;pressure;altitude;pressure_sealevel;temperature;humidity
21760;BME280;11041;50.854;20.580;2023-11-19T00:01:43;99292.56;;;0.18;100.00
21760;BME280;11041;50.854;20.580;2023-11-19T00:04:09;99302.28;;;0.19;100.00
21760;BME280;11041;50.854;20.580;2023-11-19T00:06:36;99302.66;;;0.23;100.00
21760;BME280;11041;50.854;20.580;2023-11-19T00:09:02;99315.69;;;0.26;100.00
21760;BME280;11041;50.854;20.580;2023-11-19T00:11:32;99311.97;;;0.27;100.00
21760;BME280;11041;50.854;20.580;2023-11-19T00:13:59;99302.91;;;0.33;100.00
21760;BME280;11041;50.854;20.580;2023-11-19T00:16:25;99298.19;;;0.40;100.00
21760;BME280;11041;50.854;20.580;2023-11-19T00:18:52;99294.91;;;0.50;100.00
21760;BME280;11041;50.854;20.580;2023-11-19T00:21:19;99292.66;;;0.58;100.00
21760;BME280;11041;50.854;20.580;2023-11-19T00:23:46;99287.38;;;0.63;100.00
21760;BME280;11041;50.854;20.580;2023-11-19T00:26:13;99281.00;;;0.70;100.00
21760;BME280;11041;50.854;20.580;2023-11-19T00:28:42;99287.84;;;0.72;100.00
21760;BME280;11041;50.854;20.580;2023-11-19T00:31:09;99280.06;;;0.76;100.00
21760;BME280;11041;50.854;20.580;2023-11-19T00:33:36;99276.88;;;0.79;100.00
21760;BME280;11041;50.854;20.580;2023-11-19T00:36:04;99277.81;;;0.84;100.00
21760;BME280;11041;50.854;20.580;2023-11-19T00:38:30;99283.56;;;0.88;100.00
21760;BME280;11041;50.854;20.580;2023-11-19T00:40:58;99279.81;;;0.89;100.00
21760;BME280;11041;50.854;20.580;2023-11-19T00:43:25;99284.97;;;0.91;100.00
21760;BME280;11041;50.854;20.580;2023-11-19T00:45:52;99278.72;;;0.90;100.00
21760;BME280;11041;50.854;20.580;2023-11-19T00:48:20;99281.94;;;0.87;100.00
21760;BME280;11041;50.854;20.580;2023-11-19T00:50:47;99282.97;;;0.86;100.00
21760;BME280;11041;50.854;20.580;2023-11-19T00:53:14;99272.16;;;0.86;100.00
21760;BME280;11041;50.854;20.580;2023-11-19T00:55:43;99263.81;;;0.88;100.00
21760;BME280;11041;50.854;20.580;2023-11-19T00:58:10;99249.19;;;0.89;100.00
21760;BME280;11041;50.854;20.580;2023-11-19T01:00:36;99252.00;;;0.94;100.00
21760;BME280;11041;50.854;20.580;2023-11-19T01:03:03;99251.53;;;0.97;100.00
21760;BME280;11041;50.854;20.580;2023-11-19T01:05:30;99252.13;;;0.99;100.00
21760;BME280;11041;50.854;20.580;2023-11-19T01:07:56;99243.16;;;0.98;100.00
21760;BME280;11041;50.854;20.580;2023-11-19T01:10:25;99243.75;;;1.00;100.00
21760;BME280;11041;50.854;20.580;2023-11-19T01:12:52;99233.50;;;1.02;100.00
21760;BME280;11041;50.854;20.580;2023-11-19T01:15:20;99226.22;;;1.03;100.00
21760;BME280;11041;50.854;20.580;2023-11-19T01:17:47;99220.34;;;1.06;100.00
21760;BME280;11041;50.854;20.580;2023-11-19T01:20:15;99218.19;;;1.08;100.00
21760;BME280;11041;50.854;20.580;2023-11-19T01:22:42;99222.28;;;1.11;100.00
21760;BME280;11041;50.854;20.580;2023-11-19T01:25:11;99222.56;;;1.09;100.00
21760;BME280;11041;50.854;20.580;2023-11-19T01:27:38;99220.34;;;1.06;100.00
21760;BME280;11041;50.854;20.580;2023-11-19T01:30:06;99226.78;;;1.05;100.00
21760;BME280;11041;50.854;20.580;2023-11-19T01:32:40;99223.50;;;1.03;100.00
21760;BME280;11041;50.854;20.580;2023-11-19T01:35:09;99215.38;;;1.03;100.00
21760;BME280;11041;50.854;20.580;2023-11-19T01:37:36;99209.97;;;1.03;100.00
21760;BME280;11041;50.854;20.580;2023-11-19T01:40:05;99202.69;;;1.03;100.00
21760;BME280;11041;50.854;20.580;2023-11-19T01:42:38;99195.13;;;1.05;100.00
21760;BME280;11041;50.854;20.580;2023-11-19T01:45:07;99197.03;;;1.05;100.00
21760;BME280;11041;50.854;20.580;2023-11-19T01:47:36;99198.91;;;1.04;100.00
21760;BME280;11041;50.854;20.580;2023-11-19T01:50:07;99203.66;;;0.97;100.00
21760;BME280;11041;50.854;20.580;2023-11-19T01:52:36;99200.41;;;0.83;99.99
21760;BME280;11041;50.854;20.580;2023-11-19T01:55:07;99187.41;;;0.69;100.00
21760;BME280;11041;50.854;20.580;2023-11-19T01:57:37;99181.91;;;0.63;100.00
21760;BME280;11041;50.854;20.580;2023-11-19T02:00:07;99180.81;;;0.64;100.00
21760;BME280;11041;50.854;20.580;2023-11-19T02:02:40;99179.06;;;0.70;100.00
21760;BME280;11041;50.854;20.580;2023-11-19T02:05:09;99176.44;;;0.75;100.00
21760;BME280;11041;50.854;20.580;2023-11-19T02:07:36;99174.06;;;0.79;100.00
21760;BME280;11041;50.854;20.580;2023-11-19T02:10:05;99170.91;;;0.82;100.00
21760;BME280;11041;50.854;20.580;2023-11-19T02:12:41;99171.00;;;0.87;100.00
21760;BME280;11041;50.854;20.580;2023-11-19T02:15:12;99165.91;;;0.91;100.00
21760;BME280;11041;50.854;20.580;2023-11-19T02:17:40;99156.50;;;0.93;100.00
21760;BME280;11041;50.854;20.580;2023-11-19T02:20:09;99143.31;;;0.97;100.00
21760;BME280;11041;50.854;20.580;2023-11-19T02:22:39;99144.13;;;0.97;100.00
21760;BME280;11041;50.854;20.580;2023-11-19T02:25:32;99148.63;;;0.92;100.00
21760;BME280;11041;50.854;20.580;2023-11-19T02:28:01;99143.59;;;0.83;100.00
21760;BME280;11041;50.854;20.580;2023-11-19T02:30:29;99150.72;;;0.73;100.00
21760;BME280;11041;50.854;20.580;2023-11-19T02:32:59;99139.94;;;0.61;100.00
21760;BME280;11041;50.854;20.580;2023-11-19T02:35:33;99132.44;;;0.51;100.00
21760;BME280;11041;50.854;20.580;2023-11-19T02:38:01;99137.88;;;0.39;100.00
21760;BME280;11041;50.854;20.580;2023-11-19T02:40:31;99122.38;;;0.35;100.00
21760;BME280;11041;50.854;20.580;2023-11-19T02:42:58;99133.41;;;0.33;100.00
21760;BME280;11041;50.854;20.580;2023-11-19T02:45:27;99119.47;;;0.25;100.00
21760;BME280;11041;50.854;20.580;2023-11-19T02:47:55;99129.00;;;0.15;100.00
21760;BME280;11041;50.854;20.580;2023-11-19T02:50:22;99126.19;;;0.10;100.00
21760;BME280;11041;50.854;20.580;2023-11-19T02:52:54;99118.09;;;0.10;100.00
21760;BME280;11041;50.854;20.580;2023-11-19T02:55:24;99108.81;;;0.06;100.00
21760;BME280;11041;50.854;20.580;2023-11-19T02:57:54;99105.63;;;0.09;100.00
21760;BME280;11041;50.854;20.580;2023-11-19T03:00:25;99103.50;;;0.11;100.00
21760;BME280;11041;50.854;20.580;2023-11-19T03:03:01;99108.78;;;0.18;100.00
21760;BME280;11041;50.854;20.580;2023-11-19T03:05:50;99104.69;;;0.15;100.00
21760;BME280;11041;50.854;20.580;2023-11-19T03:08:19;99095.50;;;0.16;100.00
21760;BME280;11041;50.854;20.580;2023-11-19T03:10:48;99086.22;;;0.24;100.00
21760;BME280;11041;50.854;20.580;2023-11-19T03:13:16;99080.31;;;0.27;100.00
21760;BME280;11041;50.854;20.580;2023-11-19T03:15:44;99063.97;;;0.34;100.00
21760;BME280;11041;50.854;20.580;2023-11-19T03:18:11;99061.09;;;0.40;100.00
21760;BME280;11041;50.854;20.580;2023-11-19T03:20:41;99055.78;;;0.46;100.00
21760;BME280;11041;50.854;20.580;2023-11-19T03:23:08;99054.25;;;0.50;100.00
21760;BME280;11041;50.854;20.580;2023-11-19T03:25:38;99054.94;;;0.57;100.00
21760;BME280;11041;50.854;20.580;2023-11-19T03:28:06;99037.75;;;0.63;100.00
21760;BME280;11041;50.854;20.580;2023-11-19T03:30:35;99023.50;;;0.68;100.00
21760;BME280;11041;50.854;20.580;2023-11-19T03:33:03;99022.50;;;0.74;100.00
21760;BME280;11041;50.854;20.580;2023-11-19T03:35:33;99028.50;;;0.76;100.00
21760;BME280;11041;50.854;20.580;2023-11-19T03:37:59;99016.94;;;0.80;100.00
21760;BME280;11041;50.854;20.580;2023-11-19T03:40:31;99013.75;;;0.83;100.00
21760;BME280;11041;50.854;20.580;2023-11-19T03:43:02;99007.28;;;0.84;100.00
21760;BME280;11041;50.854;20.580;2023-11-19T03:45:31;98997.84;;;0.87;100.00
21760;BME280;11041;50.854;20.580;2023-11-19T03:47:59;98997.59;;;0.89;100.00
21760;BME280;11041;50.854;20.580;2023-11-19T03:50:29;99002.53;;;0.92;100.00
21760;BME280;11041;50.854;20.580;2023-11-19T03:53:01;98998.75;;;0.93;100.00
21760;BME280;11041;50.854;20.580;2023-11-19T03:55:31;98994.16;;;0.93;100.00
21760;BME280;11041;50.854;20.580;2023-11-19T03:58:00;98996.28;;;0.91;100.00
21760;BME280;11041;50.854;20.580;2023-11-19T04:00:26;98999.47;;;0.88;100.00
21760;BME280;11041;50.854;20.580;2023-11-19T04:03:00;99005.38;;;0.85;100.00
21760;BME280;11041;50.854;20.580;2023-11-19T04:05:31;98992.38;;;0.82;100.00
21760;BME280;11041;50.854;20.580;2023-11-19T04:07:58;98981.84;;;0.85;100.00
21760;BME280;11041;50.854;20.580;2023-11-19T04:10:28;98986.19;;;0.87;100.00
21760;BME280;11041;50.854;20.580;2023-11-19T04:12:57;98977.03;;;0.88;100.00
21760;BME280;11041;50.854;20.580;2023-11-19T04:15:26;98965.63;;;0.85;100.00
21760;BME280;11041;50.854;20.580;2023-11-19T04:17:52;98963.72;;;0.86;100.00
21760;BME280;11041;50.854;20.580;2023-11-19T04:20:21;98958.91;;;0.88;100.00
21760;BME280;11041;50.854;20.580;2023-11-19T04:22:50;98970.28;;;0.90;100.00
21760;BME280;11041;50.854;20.580;2023-11-19T04:25:19;98957.34;;;0.92;100.00
21760;BME280;11041;50.854;20.580;2023-11-19T04:27:51;98950.38;;;0.96;100.00
21760;BME280;11041;50.854;20.580;2023-11-19T04:30:19;98945.22;;;0.95;100.00
21760;BME280;11041;50.854;20.580;2023-11-19T04:32:45;98940.63;;;0.95;100.00
21760;BME280;11041;50.854;20.580;2023-11-19T04:35:15;98939.56;;;0.96;99.82
21760;BME280;11041;50.854;20.580;2023-11-19T04:37:42;98926.84;;;0.97;99.81
21760;BME280;11041;50.854;20.580;2023-11-19T04:40:09;98921.16;;;0.98;99.95
21760;BME280;11041;50.854;20.580;2023-11-19T04:42:38;98918.47;;;0.98;99.95
21760;BME280;11041;50.854;20.580;2023-11-19T04:45:13;98911.19;;;0.99;99.70
21760;BME280;11041;50.854;20.580;2023-11-19T04:47:43;98910.84;;;0.95;99.14
21760;BME280;11041;50.854;20.580;2023-11-19T04:50:10;98909.91;;;0.84;98.25
21760;BME280;11041;50.854;20.580;2023-11-19T04:52:39;98904.97;;;0.81;99.43
21760;BME280;11041;50.854;20.580;2023-11-19T04:55:12;98899.88;;;0.85;100.00
21760;BME280;11041;50.854;20.580;2023-11-19T04:57:42;98895.06;;;0.87;100.00
21760;BME280;11041;50.854;20.580;2023-11-19T05:00:10;98906.19;;;0.91;100.00
21760;BME280;11041;50.854;20.580;2023-11-19T05:02:40;98903.47;;;0.91;99.35
21760;BME280;11041;50.854;20.580;2023-11-19T05:05:06;98909.47;;;0.93;99.12
21760;BME280;11041;50.854;20.580;2023-11-19T05:07:36;98911.94;;;0.94;99.10
21760;BME280;11041;50.854;20.580;2023-11-19T05:10:06;98915.44;;;0.95;98.74
21760;BME280;11041;50.854;20.580;2023-11-19T05:12:37;98913.47;;;0.90;98.29
21760;BME280;11041;50.854;20.580;2023-11-19T05:15:08;98899.72;;;0.92;98.86
21760;BME280;11041;50.854;20.580;2023-11-19T05:17:37;98898.06;;;0.91;97.96
21760;BME280;11041;50.854;20.580;2023-11-19T05:20:11;98897.25;;;0.90;97.94
21760;BME280;11041;50.854;20.580;2023-11-19T05:22:41;98891.84;;;0.90;98.18
21760;BME280;11041;50.854;20.580;2023-11-19T05:25:10;98896.44;;;0.90;97.83
21760;BME280;11041;50.854;20.580;2023-11-19T05:27:38;98894.31;;;0.92;97.87
21760;BME280;11041;50.854;20.580;2023-11-19T05:30:08;98882.41;;;0.93;98.03
21760;BME280;11041;50.854;20.580;2023-11-19T05:32:37;98875.09;;;0.93;97.36
21760;BME280;11041;50.854;20.580;2023-11-19T05:35:04;98867.56;;;0.95;97.96
21760;BME280;11041;50.854;20.580;2023-11-19T05:37:36;98878.13;;;0.97;97.82
21760;BME280;11041;50.854;20.580;2023-11-19T05:40:05;98882.22;;;0.99;97.98
21760;BME280;11041;50.854;20.580;2023-11-19T05:42:45;98884.94;;;0.99;97.52
21760;BME280;11041;50.854;20.580;2023-11-19T05:45:14;98880.34;;;1.00;97.56
21760;BME280;11041;50.854;20.580;2023-11-19T05:47:44;98875.50;;;1.02;97.21
21760;BME280;11041;50.854;20.580;2023-11-19T05:50:11;98873.84;;;1.01;97.10
21760;BME280;11041;50.854;20.580;2023-11-19T05:52:37;98874.94;;;1.00;96.87
21760;BME280;11041;50.854;20.580;2023-11-19T05:55:06;98868.69;;;0.99;97.12
21760;BME280;11041;50.854;20.580;2023-11-19T05:57:38;98868.44;;;1.01;96.80
21760;BME280;11041;50.854;20.580;2023-11-19T06:00:11;98877.69;;;1.05;96.87
21760;BME280;11041;50.854;20.580;2023-11-19T06:02:40;98867.16;;;1.03;95.88
21760;BME280;11041;50.854;20.580;2023-11-19T06:05:07;98875.81;;;1.05;96.28
21760;BME280;11041;50.854;20.580;2023-11-19T06:07:34;98867.16;;;1.03;96.24
21760;BME280;11041;50.854;20.580;2023-11-19T06:10:03;98864.97;;;1.05;96.50
21760;BME280;11041;50.854;20.580;2023-11-19T06:12:33;98860.66;;;1.04;95.74
21760;BME280;11041;50.854;20.580;2023-11-19T06:15:06;98857.94;;;1.04;95.90
21760;BME280;11041;50.854;20.580;2023-11-19T06:17:34;98857.72;;;1.06;95.72
21760;BME280;11041;50.854;20.580;2023-11-19T06:20:01;98865.25;;;1.04;95.06
21760;BME280;11041;50.854;20.580;2023-11-19T06:22:30;98851.97;;;1.02;95.86
21760;BME280;11041;50.854;20.580;2023-11-19T06:24:57;98856.63;;;1.07;95.82
21760;BME280;11041;50.854;20.580;2023-11-19T06:27:24;98847.19;;;1.10;96.26
21760;BME280;11041;50.854;20.580;2023-11-19T06:29:51;98850.47;;;1.12;95.77
21760;BME280;11041;50.854;20.580;2023-11-19T06:32:17;98849.13;;;1.14;95.54
21760;BME280;11041;50.854;20.580;2023-11-19T06:34:44;98837.50;;;1.14;95.51
21760;BME280;11041;50.854;20.580;2023-11-19T06:37:11;98848.91;;;1.16;95.46
21760;BME280;11041;50.854;20.580;2023-11-19T06:39:38;98846.19;;;1.16;96.01
21760;BME280;11041;50.854;20.580;2023-11-19T06:42:04;98839.69;;;1.17;96.05
21760;BME280;11041;50.854;20.580;2023-11-19T06:44:31;98846.50;;;1.19;95.96
21760;BME280;11041;50.854;20.580;2023-11-19T06:46:58;98845.16;;;1.22;95.63
21760;BME280;11041;50.854;20.580;2023-11-19T06:49:25;98849.78;;;1.21;95.49
21760;BME280;11041;50.854;20.580;2023-11-19T06:51:51;98834.34;;;1.22;95.63
21760;BME280;11041;50.854;20.580;2023-11-19T06:54:18;98833.28;;;1.23;95.98
21760;BME280;11041;50.854;20.580;2023-11-19T06:56:44;98827.38;;;1.26;95.74
21760;BME280;11041;50.854;20.580;2023-11-19T06:59:11;98824.66;;;1.26;95.50
21760;BME280;11041;50.854;20.580;2023-11-19T07:01:38;98824.16;;;1.29;95.60
21760;BME280;11041;50.854;20.580;2023-11-19T07:04:05;98826.03;;;1.28;95.64
21760;BME280;11041;50.854;20.580;2023-11-19T07:06:36;98829.56;;;1.29;95.52
21760;BME280;11041;50.854;20.580;2023-11-19T07:09:03;98827.13;;;1.27;95.74
21760;BME280;11041;50.854;20.580;2023-11-19T07:11:40;98828.22;;;1.32;95.99
21760;BME280;11041;50.854;20.580;2023-11-19T07:14:09;98809.28;;;1.32;96.10
21760;BME280;11041;50.854;20.580;2023-11-19T07:16:35;98806.91;;;1.35;95.90
21760;BME280;11041;50.854;20.580;2023-11-19T07:19:06;98800.16;;;1.38;95.40
21760;BME280;11041;50.854;20.580;2023-11-19T07:21:33;98800.16;;;1.38;95.44
21760;BME280;11041;50.854;20.580;2023-11-19T07:24:02;98793.16;;;1.42;95.77
21760;BME280;11041;50.854;20.580;2023-11-19T07:26:28;98802.09;;;1.42;95.56
21760;BME280;11041;50.854;20.580;2023-11-19T07:28:55;98788.56;;;1.42;95.61
21760;BME280;11041;50.854;20.580;2023-11-19T07:31:22;98789.63;;;1.41;94.60
21760;BME280;11041;50.854;20.580;2023-11-19T07:33:50;98777.75;;;1.42;94.84
21760;BME280;11041;50.854;20.580;2023-11-19T07:36:18;98765.81;;;1.43;95.75
21760;BME280;11041;50.854;20.580;2023-11-19T07:38:46;98755.00;;;1.43;95.41
21760;BME280;11041;50.854;20.580;2023-11-19T07:41:13;98745.53;;;1.46;95.68
21760;BME280;11041;50.854;20.580;2023-11-19T07:43:44;98744.47;;;1.47;95.45
21760;BME280;11041;50.854;20.580;2023-11-19T07:46:13;98755.84;;;1.49;95.27
21760;BME280;11041;50.854;20.580;2023-11-19T07:48:40;98756.69;;;1.49;95.36
21760;BME280;11041;50.854;20.580;2023-11-19T07:51:11;98754.47;;;1.46;94.74
21760;BME280;11041;50.854;20.580;2023-11-19T07:53:38;98752.84;;;1.45;95.21
21760;BME280;11041;50.854;20.580;2023-11-19T07:56:07;98741.22;;;1.45;94.89
21760;BME280;11041;50.854;20.580;2023-11-19T07:58:34;98730.38;;;1.45;95.50
21760;BME280;11041;50.854;20.580;2023-11-19T08:01:01;98728.47;;;1.45;95.09
21760;BME280;11041;50.854;20.580;2023-11-19T08:03:30;98732.81;;;1.46;95.03
21760;BME280;11041;50.854;20.580;2023-11-19T08:05:56;98727.91;;;1.43;94.79
21760;BME280;11041;50.854;20.580;2023-11-19T08:08:23;98724.66;;;1.41;94.81
21760;BME280;11041;50.854;20.580;2023-11-19T08:10:50;98726.78;;;1.39;95.33
21760;BME280;11041;50.854;20.580;2023-11-19T08:13:18;98737.13;;;1.42;96.10
21760;BME280;11041;50.854;20.580;2023-11-19T08:15:46;98723.88;;;1.46;96.07
21760;BME280;11041;50.854;20.580;2023-11-19T08:18:13;98720.16;;;1.52;96.34
21760;BME280;11041;50.854;20.580;2023-11-19T08:20:40;98721.25;;;1.56;95.80
21760;BME280;11041;50.854;20.580;2023-11-19T08:23:08;98717.22;;;1.59;95.75
21760;BME280;11041;50.854;20.580;2023-11-19T08:25:35;98714.56;;;1.64;95.89
21760;BME280;11041;50.854;20.580;2023-11-19T08:28:02;98708.06;;;1.65;95.02
21760;BME280;11041;50.854;20.580;2023-11-19T08:30:31;98712.38;;;1.61;94.75
21760;BME280;11041;50.854;20.580;2023-11-19T08:33:03;98692.56;;;1.55;95.04
21760;BME280;11041;50.854;20.580;2023-11-19T08:35:30;98698.25;;;1.59;95.43
21760;BME280;11041;50.854;20.580;2023-11-19T08:37:57;98693.16;;;1.62;95.15
21760;BME280;11041;50.854;20.580;2023-11-19T08:40:24;98692.38;;;1.67;95.26
21760;BME280;11041;50.854;20.580;2023-11-19T08:42:54;98678.06;;;1.72;95.56
21760;BME280;11041;50.854;20.580;2023-11-19T08:45:20;98678.91;;;1.77;95.44
21760;BME280;11041;50.854;20.580;2023-11-19T08:47:48;98691.69;;;1.82;94.93
21760;BME280;11041;50.854;20.580;2023-11-19T08:50:14;98680.63;;;1.88;95.69
21760;BME280;11041;50.854;20.580;2023-11-19T08:52:42;98679.84;;;1.93;94.49
21760;BME280;11041;50.854;20.580;2023-11-19T08:55:09;98675.78;;;1.90;93.31
21760;BME280;11041;50.854;20.580;2023-11-19T08:57:36;98675.78;;;1.90;94.18
21760;BME280;11041;50.854;20.580;2023-11-19T09:00:03;98682.03;;;1.96;94.19
21760;BME280;11041;50.854;20.580;2023-11-19T09:02:37;98678.81;;;2.04;94.35
21760;BME280;11041;50.854;20.580;2023-11-19T09:05:05;98679.91;;;2.03;92.57
21760;BME280;11041;50.854;20.580;2023-11-19T09:07:34;98668.50;;;2.01;93.02
21760;BME280;11041;50.854;20.580;2023-11-19T09:10:01;98675.34;;;2.09;93.54
21760;BME280;11041;50.854;20.580;2023-11-19T09:12:28;98662.34;;;2.11;93.31
21760;BME280;11041;50.854;20.580;2023-11-19T09:14:55;98648.31;;;2.19;93.62
21760;BME280;11041;50.854;20.580;2023-11-19T09:17:22;98645.06;;;2.22;92.65
21760;BME280;11041;50.854;20.580;2023-11-19T09:19:48;98635.34;;;2.26;91.85
21760;BME280;11041;50.854;20.580;2023-11-19T09:22:16;98631.28;;;2.29;91.99
21760;BME280;11041;50.854;20.580;2023-11-19T09:24:42;98632.91;;;2.35;91.96
21760;BME280;11041;50.854;20.580;2023-11-19T09:27:11;98632.06;;;2.24;90.74
21760;BME280;11041;50.854;20.580;2023-11-19T09:29:37;98630.72;;;2.27;91.76
21760;BME280;11041;50.854;20.580;2023-11-19T09:32:05;98626.66;;;2.24;91.57
21760;BME280;11041;50.854;20.580;2023-11-19T09:34:31;98625.47;;;2.10;90.38
21760;BME280;11041;50.854;20.580;2023-11-19T09:36:58;98623.81;;;2.04;90.50
21760;BME280;11041;50.854;20.580;2023-11-19T09:39:24;98611.91;;;2.05;91.56
21760;BME280;11041;50.854;20.580;2023-11-19T09:41:52;98615.19;;;2.07;91.03
21760;BME280;11041;50.854;20.580;2023-11-19T09:44:19;98605.94;;;2.08;91.14
21760;BME280;11041;50.854;20.580;2023-11-19T09:46:46;98595.38;;;2.11;91.51
21760;BME280;11041;50.854;20.580;2023-11-19T09:49:21;98584.84;;;2.15;91.03
21760;BME280;11041;50.854;20.580;2023-11-19T09:51:53;98585.31;;;2.02;91.15
21760;BME280;11041;50.854;20.580;2023-11-19T09:54:19;98583.13;;;1.99;91.39
21760;BME280;11041;50.854;20.580;2023-11-19T09:56:47;98566.09;;;2.03;91.99
21760;BME280;11041;50.854;20.580;2023-11-19T09:59:14;98564.22;;;2.09;92.20
21760;BME280;11041;50.854;20.580;2023-11-19T10:01:43;98558.56;;;2.16;92.74
21760;BME280;11041;50.854;20.580;2023-11-19T10:04:15;98547.22;;;2.24;92.48
21760;BME280;11041;50.854;20.580;2023-11-19T10:06:45;98550.19;;;2.27;91.14
21760;BME280;11041;50.854;20.580;2023-11-19T10:09:15;98541.81;;;2.34;91.47
21760;BME280;11041;50.854;20.580;2023-11-19T10:11:42;98548.06;;;2.40;91.67
21760;BME280;11041;50.854;20.580;2023-11-19T10:14:09;98546.16;;;2.40;90.88
21760;BME280;11041;50.854;20.580;2023-11-19T10:16:37;98538.84;;;2.41;90.72
21760;BME280;11041;50.854;20.580;2023-11-19T10:19:04;98533.03;;;2.11;90.52
21760;BME280;11041;50.854;20.580;2023-11-19T10:21:33;98532.78;;;2.13;91.40
21760;BME280;11041;50.854;20.580;2023-11-19T10:24:00;98530.91;;;2.19;91.48
21760;BME280;11041;50.854;20.580;2023-11-19T10:26:28;98518.19;;;2.24;92.08
21760;BME280;11041;50.854;20.580;2023-11-19T10:28:56;98507.09;;;2.31;92.12
21760;BME280;11041;50.854;20.580;2023-11-19T10:31:23;98498.19;;;2.41;92.43
21760;BME280;11041;50.854;20.580;2023-11-19T10:33:52;98499.81;;;2.52;92.74
21760;BME280;11041;50.854;20.580;2023-11-19T10:36:19;98499.31;;;2.60;92.11
21760;BME280;11041;50.854;20.580;2023-11-19T10:38:56;98490.63;;;2.68;90.56
21760;BME280;11041;50.854;20.580;2023-11-19T10:41:31;98485.75;;;2.75;91.68
21760;BME280;11041;50.854;20.580;2023-11-19T10:44:00;98494.97;;;2.85;90.14
21760;BME280;11041;50.854;20.580;2023-11-19T10:46:41;98475.44;;;2.88;89.73
21760;BME280;11041;50.854;20.580;2023-11-19T10:49:10;98475.97;;;2.95;89.90
21760;BME280;11041;50.854;20.580;2023-11-19T10:51:45;98471.63;;;2.94;87.71
21760;BME280;11041;50.854;20.580;2023-11-19T10:54:18;98461.03;;;2.97;88.32
21760;BME280;11041;50.854;20.580;2023-11-19T10:56:54;98459.13;;;2.98;87.68
21760;BME280;11041;50.854;20.580;2023-11-19T10:59:22;98464.31;;;2.99;87.60
21760;BME280;11041;50.854;20.580;2023-11-19T11:01:54;98451.28;;;3.02;88.28
21760;BME280;11041;50.854;20.580;2023-11-19T11:04:25;98452.34;;;3.01;87.45
21760;BME280;11041;50.854;20.580;2023-11-19T11:06:55;98440.97;;;3.04;87.29
21760;BME280;11041;50.854;20.580;2023-11-19T11:09:29;98437.16;;;2.99;87.52
21760;BME280;11041;50.854;20.580;2023-11-19T11:11:59;98430.38;;;3.02;87.27
21760;BME280;11041;50.854;20.580;2023-11-19T11:14:27;98422.50;;;3.06;87.74
21760;BME280;11041;50.854;20.580;2023-11-19T11:16:58;98414.34;;;3.11;87.54
21760;BME280;11041;50.854;20.580;2023-11-19T11:19:25;98417.03;;;3.16;88.07
21760;BME280;11041;50.854;20.580;2023-11-19T11:21:55;98409.72;;;3.16;87.27
21760;BME280;11041;50.854;20.580;2023-11-19T11:25:02;98401.00;;;3.19;87.71
21760;BME280;11041;50.854;20.580;2023-11-19T11:28:05;98403.69;;;3.25;87.36
21760;BME280;11041;50.854;20.580;2023-11-19T11:36:33;98383.34;;;3.22;86.63
21760;BME280;11041;50.854;20.580;2023-11-19T11:39:07;98371.13;;;3.19;86.62
21760;BME280;11041;50.854;20.580;2023-11-19T11:41:34;98368.19;;;3.16;86.37
21760;BME280;11041;50.854;20.580;2023-11-19T11:44:01;98363.00;;;3.14;86.51
21760;BME280;11041;50.854;20.580;2023-11-19T11:49:06;98352.72;;;3.06;86.65
21760;BME280;11041;50.854;20.580;2023-11-19T11:54:26;98344.59;;;3.06;87.06
21760;BME280;11041;50.854;20.580;2023-11-19T11:57:11;98347.31;;;3.06;87.37
21760;BME280;11041;50.854;20.580;2023-11-19T11:59:49;98330.22;;;3.06;87.39
21760;BME280;11041;50.854;20.580;2023-11-19T12:02:19;98326.41;;;3.07;88.13
21760;BME280;11041;50.854;20.580;2023-11-19T12:04:52;98317.72;;;3.05;87.77
21760;BME280;11041;50.854;20.580;2023-11-19T12:07:24;98320.97;;;3.07;87.52
21760;BME280;11041;50.854;20.580;2023-11-19T12:10:07;98324.22;;;3.09;88.19
21760;BME280;11041;50.854;20.580;2023-11-19T12:12:34;98320.97;;;3.07;88.10
21760;BME280;11041;50.854;20.580;2023-11-19T12:17:49;98322.06;;;3.06;88.24
21760;BME280;11041;50.854;20.580;2023-11-19T12:20:19;98319.63;;;3.04;88.10
21760;BME280;11041;50.854;20.580;2023-11-19T12:22:48;98307.16;;;3.03;88.03
21760;BME280;11041;50.854;20.580;2023-11-19T12:25:17;98312.03;;;3.01;88.28
21760;BME280;11041;50.854;20.580;2023-11-19T12:27:47;98302.28;;;2.95;88.00
21760;BME280;11041;50.854;20.580;2023-11-19T12:30:32;98302.84;;;2.92;87.27
21760;BME280;11041;50.854;20.580;2023-11-19T12:32:58;98295.25;;;2.84;87.84
21760;BME280;11041;50.854;20.580;2023-11-19T12:35:25;98298.50;;;2.81;88.60
21760;BME280;11041;50.854;20.580;2023-11-19T12:37:52;98288.25;;;2.72;89.12
21760;BME280;11041;50.854;20.580;2023-11-19T12:40:23;98298.25;;;2.67;89.67
21760;BME280;11041;50.854;20.580;2023-11-19T12:42:52;98298.28;;;2.62;90.45
21760;BME280;11041;50.854;20.580;2023-11-19T12:45:20;98283.94;;;2.56;90.73
21760;BME280;11041;50.854;20.580;2023-11-19T12:47:48;98285.00;;;2.50;91.35
21760;BME280;11041;50.854;20.580;2023-11-19T12:50:17;98273.63;;;2.43;92.20
21760;BME280;11041;50.854;20.580;2023-11-19T12:53:03;98274.75;;;2.37;93.05
21760;BME280;11041;50.854;20.580;2023-11-19T12:55:31;98263.09;;;2.31;92.93
21760;BME280;11041;50.854;20.580;2023-11-19T12:57:58;98264.19;;;2.25;93.75
21760;BME280;11041;50.854;20.580;2023-11-19T13:00:27;98263.63;;;2.18;93.86
21760;BME280;11041;50.854;20.580;2023-11-19T13:02:56;98250.66;;;2.09;94.13
21760;BME280;11041;50.854;20.580;2023-11-19T13:05:28;98244.94;;;2.01;94.69
21760;BME280;11041;50.854;20.580;2023-11-19T13:08:06;98231.97;;;1.92;95.58
21760;BME280;11041;50.854;20.580;2023-11-19T13:10:52;98226.81;;;1.86;96.03
21760;BME280;11041;50.854;20.580;2023-11-19T13:13:20;98216.50;;;1.78;96.37
21760;BME280;11041;50.854;20.580;2023-11-19T13:15:47;98207.56;;;1.72;97.74
21760;BME280;11041;50.854;20.580;2023-11-19T13:18:16;98207.03;;;1.70;97.82
21760;BME280;11041;50.854;20.580;2023-11-19T13:20:44;98212.44;;;1.65;97.69
21760;BME280;11041;50.854;20.580;2023-11-19T13:23:11;98216.50;;;1.62;97.88